sensor_id;sensor_type;location;lat;lon;timestamp;pressure;altitude;pressure_sealevel;temperature;humidity
6938;BME280;40040;42.706;23.372;2023-02-18T00:00:58;144657.59;;;1.90;96.85
6938;BME280;40040;42.706;23.372;2023-02-18T00:03:26;144657.59;;;1.90;96.98
6938;BME280;40040;42.706;23.372;2023-02-18T00:05:53;144630.66;;;1.79;97.18
6938;BME280;40040;42.706;23.372;2023-02-18T00:08:20;144667.41;;;1.94;97.14
6938;BME280;40040;42.706;23.372;2023-02-18T00:10:47;144667.41;;;1.94;96.11
6938;BME280;40040;42.706;23.372;2023-02-18T00:13:14;144635.56;;;1.81;95.74
6938;BME280;40040;42.706;23.372;2023-02-18T00:15:41;144669.81;;;1.95;96.05
6938;BME280;40040;42.706;23.372;2023-02-18T00:18:09;144647.81;;;1.86;96.82
6938;BME280;40040;42.706;23.372;2023-02-18T00:20:37;144638.00;;;1.82;97.25
6938;BME280;40040;42.706;23.372;2023-02-18T00:23:05;144611.03;;;1.71;98.11
6938;BME280;40040;42.706;23.372;2023-02-18T00:25:32;144625.75;;;1.77;98.48
6938;BME280;40040;42.706;23.372;2023-02-18T00:27:59;144633.09;;;1.80;98.72
6938;BME280;40040;42.706;23.372;2023-02-18T00:30:25;144625.75;;;1.77;99.27
6938;BME280;40040;42.706;23.372;2023-02-18T00:32:52;144564.50;;;1.52;100.00
6938;BME280;40040;42.706;23.372;2023-02-18T00:35:21;144536.38;;;1.41;100.00
6938;BME280;40040;42.706;23.372;2023-02-18T00:37:50;144530.22;;;1.38;100.00
6938;BME280;40040;42.706;23.372;2023-02-18T00:40:17;144552.28;;;1.47;100.00
6938;BME280;40040;42.706;23.372;2023-02-18T00:42:43;144541.28;;;1.43;100.00
6938;BME280;40040;42.706;23.372;2023-02-18T00:45:10;144566.97;;;1.53;100.00
6938;BME280;40040;42.706;23.372;2023-02-18T00:47:37;144571.84;;;1.55;100.00
6938;BME280;40040;42.706;23.372;2023-02-18T00:50:05;144573.09;;;1.56;100.00
6938;BME280;40040;42.706;23.372;2023-02-18T00:52:34;144586.56;;;1.61;100.00
6938;BME280;40040;42.706;23.372;2023-02-18T00:55:01;144570.66;;;1.55;100.00
6938;BME280;40040;42.706;23.372;2023-02-18T00:57:28;144574.31;;;1.56;100.00
6938;BME280;40040;42.706;23.372;2023-02-18T00:59:55;144584.13;;;1.60;99.45
6938;BME280;40040;42.706;23.372;2023-02-18T01:02:21;144535.13;;;1.40;98.61
6938;BME280;40040;42.706;23.372;2023-02-18T01:04:48;144581.66;;;1.59;97.53
6938;BME280;40040;42.706;23.372;2023-02-18T01:07:15;144535.13;;;1.40;97.79
6938;BME280;40040;42.706;23.372;2023-02-18T01:09:43;144518.00;;;1.33;98.94
6938;BME280;40040;42.706;23.372;2023-02-18T01:12:10;144473.94;;;1.15;100.00
6938;BME280;40040;42.706;23.372;2023-02-18T01:14:37;144476.38;;;1.16;99.81
6938;BME280;40040;42.706;23.372;2023-02-18T01:17:04;144513.09;;;1.31;99.52
6938;BME280;40040;42.706;23.372;2023-02-18T01:19:30;144339.28;;;0.60;99.89
6938;BME280;40040;42.706;23.372;2023-02-18T01:21:57;144515.56;;;1.32;98.95
6938;BME280;40040;42.706;23.372;2023-02-18T01:24:24;144495.94;;;1.24;98.77
6938;BME280;40040;42.706;23.372;2023-02-18T01:26:52;144492.28;;;1.23;98.88
6938;BME280;40040;42.706;23.372;2023-02-18T01:29:19;144491.03;;;1.22;99.46
6938;BME280;40040;42.706;23.372;2023-02-18T01:31:46;144437.19;;;1.00;99.63
6938;BME280;40040;42.706;23.372;2023-02-18T01:34:13;144471.47;;;1.14;99.94
6938;BME280;40040;42.706;23.372;2023-02-18T01:36:39;144475.13;;;1.15;99.01
6938;BME280;40040;42.706;23.372;2023-02-18T01:39:06;144462.91;;;1.10;99.92
6938;BME280;40040;42.706;23.372;2023-02-18T01:41:33;144440.84;;;1.01;100.00
6938;BME280;40040;42.706;23.372;2023-02-18T01:44:16;144417.63;;;0.92;100.00
6938;BME280;40040;42.706;23.372;2023-02-18T01:46:43;144449.44;;;1.05;100.00
6938;BME280;40040;42.706;23.372;2023-02-18T01:49:13;144450.66;;;1.05;100.00
6938;BME280;40040;42.706;23.372;2023-02-18T01:51:42;144432.28;;;0.98;100.00
6938;BME280;40040;42.706;23.372;2023-02-18T01:54:14;144431.09;;;0.97;100.00
6938;BME280;40040;42.706;23.372;2023-02-18T01:56:45;144412.72;;;0.90;100.00
6938;BME280;40040;42.706;23.372;2023-02-18T01:59:16;144387.03;;;0.79;100.00
6938;BME280;40040;42.706;23.372;2023-02-18T02:01:44;144367.47;;;0.71;100.00
6938;BME280;40040;42.706;23.372;2023-02-18T02:04:12;144309.94;;;0.48;100.00
6938;BME280;40040;42.706;23.372;2023-02-18T02:06:39;144312.41;;;0.49;100.00
6938;BME280;40040;42.706;23.372;2023-02-18T02:09:09;144251.22;;;0.24;100.00
6938;BME280;40040;42.706;23.372;2023-02-18T02:14:45;144289.16;;;0.39;100.00
6938;BME280;40040;42.706;23.372;2023-02-18T02:17:21;144280.59;;;0.36;100.00
6938;BME280;40040;42.706;23.372;2023-02-18T02:23:40;144267.13;;;0.30;100.00
6938;BME280;40040;42.706;23.372;2023-02-18T02:26:34;144283.00;;;0.37;100.00
6938;BME280;40040;42.706;23.372;2023-02-18T02:32:52;144303.84;;;0.45;100.00
6938;BME280;40040;42.706;23.372;2023-02-18T02:35:29;144291.56;;;0.40;100.00
6938;BME280;40040;42.706;23.372;2023-02-18T02:38:01;144290.38;;;0.40;100.00
6938;BME280;40040;42.706;23.372;2023-02-18T02:40:35;144303.84;;;0.45;100.00
6938;BME280;40040;42.706;23.372;2023-02-18T02:43:11;144309.94;;;0.48;100.00
6938;BME280;40040;42.706;23.372;2023-02-18T02:45:47;144248.81;;;0.23;100.00
6938;BME280;40040;42.706;23.372;2023-02-18T02:48:24;144313.59;;;0.49;100.00
6938;BME280;40040;42.706;23.372;2023-02-18T02:51:03;144331.97;;;0.57;100.00
6938;BME280;40040;42.706;23.372;2023-02-18T02:53:34;144305.03;;;0.46;100.00
6938;BME280;40040;42.706;23.372;2023-02-18T02:56:01;144334.38;;;0.58;100.00
6938;BME280;40040;42.706;23.372;2023-02-18T02:58:29;144368.66;;;0.72;100.00
6938;BME280;40040;42.706;23.372;2023-02-18T03:01:14;144363.75;;;0.70;100.00
6938;BME280;40040;42.706;23.372;2023-02-18T03:10:14;144325.81;;;0.54;100.00
6938;BME280;40040;42.706;23.372;2023-02-18T03:12:50;144309.94;;;0.48;100.00
6938;BME280;40040;42.706;23.372;2023-02-18T03:15:23;144287.91;;;0.39;100.00
6938;BME280;40040;42.706;23.372;2023-02-18T03:17:57;144307.50;;;0.47;100.00
6938;BME280;40040;42.706;23.372;2023-02-18T03:20:29;144307.50;;;0.47;100.00
6938;BME280;40040;42.706;23.372;2023-02-18T03:22:59;144324.63;;;0.54;100.00
6938;BME280;40040;42.706;23.372;2023-02-18T03:25:28;144312.41;;;0.49;100.00
6938;BME280;40040;42.706;23.372;2023-02-18T03:28:01;144280.59;;;0.36;100.00
6938;BME280;40040;42.706;23.372;2023-02-18T03:30:32;144279.34;;;0.35;100.00
6938;BME280;40040;42.706;23.372;2023-02-18T03:33:03;144221.88;;;0.12;100.00
6938;BME280;40040;42.706;23.372;2023-02-18T03:35:31;144258.56;;;0.27;100.00
6938;BME280;40040;42.706;23.372;2023-02-18T03:38:01;144252.47;;;0.24;100.00
6938;BME280;40040;42.706;23.372;2023-02-18T03:40:32;144239.00;;;0.19;100.00
6938;BME280;40040;42.706;23.372;2023-02-18T03:42:59;144256.13;;;0.26;100.00
6938;BME280;40040;42.706;23.372;2023-02-18T03:45:26;144268.34;;;0.31;100.00
6938;BME280;40040;42.706;23.372;2023-02-18T03:47:53;144227.97;;;0.14;100.00
6938;BME280;40040;42.706;23.372;2023-02-18T03:50:20;144265.94;;;0.30;100.00
6938;BME280;40040;42.706;23.372;2023-02-18T03:52:47;144210.84;;;0.07;100.00
6938;BME280;40040;42.706;23.372;2023-02-18T03:55:14;144204.75;;;0.05;100.00
6938;BME280;40040;42.706;23.372;2023-02-18T03:57:42;144248.81;;;0.23;100.00
6938;BME280;40040;42.706;23.372;2023-02-18T04:00:10;144216.97;;;0.10;100.00
6938;BME280;40040;42.706;23.372;2023-02-18T04:02:37;144150.97;;;-0.18;100.00
6938;BME280;40040;42.706;23.372;2023-02-18T04:05:04;144153.38;;;-0.17;100.00
6938;BME280;40040;42.706;23.372;2023-02-18T04:07:31;144097.16;;;-0.40;100.00
6938;BME280;40040;42.706;23.372;2023-02-18T04:09:58;144114.25;;;-0.33;100.00
6938;BME280;40040;42.706;23.372;2023-02-18T04:12:25;144131.38;;;-0.26;100.00
6938;BME280;40040;42.706;23.372;2023-02-18T04:14:53;144148.50;;;-0.19;100.00
6938;BME280;40040;42.706;23.372;2023-02-18T04:17:20;144174.16;;;-0.08;100.00
6938;BME280;40040;42.706;23.372;2023-02-18T04:19:47;144136.28;;;-0.24;100.00
6938;BME280;40040;42.706;23.372;2023-02-18T04:22:13;144198.63;;;0.02;100.00
6938;BME280;40040;42.706;23.372;2023-02-18T04:24:40;144110.59;;;-0.34;100.00
6938;BME280;40040;42.706;23.372;2023-02-18T04:27:07;144158.28;;;-0.15;100.00
6938;BME280;40040;42.706;23.372;2023-02-18T04:29:34;144138.69;;;-0.23;100.00
6938;BME280;40040;42.706;23.372;2023-02-18T04:32:03;144111.84;;;-0.34;100.00
6938;BME280;40040;42.706;23.372;2023-02-18T04:34:29;144115.50;;;-0.32;100.00
6938;BME280;40040;42.706;23.372;2023-02-18T04:36:56;144143.59;;;-0.21;100.00
6938;BME280;40040;42.706;23.372;2023-02-18T04:39:23;144120.38;;;-0.30;100.00
6938;BME280;40040;42.706;23.372;2023-02-18T04:41:50;144155.81;;;-0.16;100.00
6938;BME280;40040;42.706;23.372;2023-02-18T04:44:17;144182.75;;;-0.05;100.00
6938;BME280;40040;42.706;23.372;2023-02-18T04:46:44;144185.22;;;-0.04;100.00
6938;BME280;40040;42.706;23.372;2023-02-18T04:49:12;144171.75;;;-0.09;100.00
6938;BME280;40040;42.706;23.372;2023-02-18T04:51:39;144177.84;;;-0.07;100.00
6938;BME280;40040;42.706;23.372;2023-02-18T04:54:05;144192.53;;;-0.01;100.00
6938;BME280;40040;42.706;23.372;2023-02-18T04:56:32;144192.53;;;-0.01;100.00
6938;BME280;40040;42.706;23.372;2023-02-18T04:58:59;144187.63;;;-0.03;100.00
6938;BME280;40040;42.706;23.372;2023-02-18T05:01:26;144224.31;;;0.13;100.00
6938;BME280;40040;42.706;23.372;2023-02-18T05:03:53;144225.53;;;0.13;100.00
6938;BME280;40040;42.706;23.372;2023-02-18T05:06:21;144234.09;;;0.17;100.00
6938;BME280;40040;42.706;23.372;2023-02-18T05:08:48;144243.91;;;0.21;100.00
6938;BME280;40040;42.706;23.372;2023-02-18T05:11:15;144267.13;;;0.30;100.00
6938;BME280;40040;42.706;23.372;2023-02-18T05:13:41;144216.97;;;0.10;100.00
6938;BME280;40040;42.706;23.372;2023-02-18T05:16:08;144287.91;;;0.39;100.00
6938;BME280;40040;42.706;23.372;2023-02-18T05:18:35;144295.28;;;0.42;100.00
6938;BME280;40040;42.706;23.372;2023-02-18T05:21:02;144305.03;;;0.46;100.00
6938;BME280;40040;42.706;23.372;2023-02-18T05:23:30;144313.59;;;0.49;100.00
6938;BME280;40040;42.706;23.372;2023-02-18T05:25:57;144287.91;;;0.39;100.00
6938;BME280;40040;42.706;23.372;2023-02-18T05:28:24;144296.47;;;0.42;100.00
6938;BME280;40040;42.706;23.372;2023-02-18T05:30:51;144301.38;;;0.44;100.00
6938;BME280;40040;42.706;23.372;2023-02-18T05:33:17;144314.84;;;0.50;100.00
6938;BME280;40040;42.706;23.372;2023-02-18T05:35:44;144318.50;;;0.51;100.00
6938;BME280;40040;42.706;23.372;2023-02-18T05:38:11;144319.72;;;0.52;100.00
6938;BME280;40040;42.706;23.372;2023-02-18T05:40:39;144307.50;;;0.47;100.00
6938;BME280;40040;42.706;23.372;2023-02-18T05:43:06;144292.81;;;0.41;100.00
6938;BME280;40040;42.706;23.372;2023-02-18T05:45:33;144295.28;;;0.42;100.00
6938;BME280;40040;42.706;23.372;2023-02-18T05:48:00;144290.38;;;0.40;100.00
6938;BME280;40040;42.706;23.372;2023-02-18T05:50:26;144311.16;;;0.48;100.00
6938;BME280;40040;42.706;23.372;2023-02-18T05:52:53;144333.19;;;0.57;100.00
6938;BME280;40040;42.706;23.372;2023-02-18T05:55:20;144333.19;;;0.57;100.00
6938;BME280;40040;42.706;23.372;2023-02-18T05:57:48;144372.31;;;0.73;100.00
6938;BME280;40040;42.706;23.372;2023-02-18T06:00:16;144376.03;;;0.75;100.00
6938;BME280;40040;42.706;23.372;2023-02-18T06:02:43;144389.47;;;0.80;100.00
6938;BME280;40040;42.706;23.372;2023-02-18T06:05:10;144411.50;;;0.89;100.00
6938;BME280;40040;42.706;23.372;2023-02-18T06:07:36;144448.25;;;1.04;100.00
6938;BME280;40040;42.706;23.372;2023-02-18T06:10:05;144482.50;;;1.19;100.00
6938;BME280;40040;42.706;23.372;2023-02-18T06:12:32;144511.91;;;1.31;100.00
6938;BME280;40040;42.706;23.372;2023-02-18T06:15:00;144530.22;;;1.38;100.00
6938;BME280;40040;42.706;23.372;2023-02-18T06:17:27;144558.41;;;1.50;100.00
6938;BME280;40040;42.706;23.372;2023-02-18T06:19:54;144575.56;;;1.57;100.00
6938;BME280;40040;42.706;23.372;2023-02-18T06:22:20;144554.75;;;1.48;100.00
6938;BME280;40040;42.706;23.372;2023-02-18T06:24:47;144580.41;;;1.59;100.00
6938;BME280;40040;42.706;23.372;2023-02-18T06:27:14;144600.03;;;1.67;100.00
6938;BME280;40040;42.706;23.372;2023-02-18T06:29:41;144602.47;;;1.68;100.00
6938;BME280;40040;42.706;23.372;2023-02-18T06:32:09;144640.44;;;1.83;100.00
6938;BME280;40040;42.706;23.372;2023-02-18T06:34:36;144669.81;;;1.95;100.00
6938;BME280;40040;42.706;23.372;2023-02-18T06:37:03;144689.47;;;2.03;100.00
6938;BME280;40040;42.706;23.372;2023-02-18T06:39:29;144718.84;;;2.15;100.00
6938;BME280;40040;42.706;23.372;2023-02-18T06:41:56;144740.91;;;2.24;100.00
6938;BME280;40040;42.706;23.372;2023-02-18T06:44:23;144737.25;;;2.23;100.00
6938;BME280;40040;42.706;23.372;2023-02-18T06:46:50;144750.69;;;2.28;100.00
6938;BME280;40040;42.706;23.372;2023-02-18T06:49:18;144785.00;;;2.43;100.00
6938;BME280;40040;42.706;23.372;2023-02-18T06:51:45;144793.56;;;2.46;100.00
6938;BME280;40040;42.706;23.372;2023-02-18T06:54:12;144783.81;;;2.42;100.00
6938;BME280;40040;42.706;23.372;2023-02-18T06:56:39;144856.13;;;2.72;100.00
6938;BME280;40040;42.706;23.372;2023-02-18T06:59:05;144858.56;;;2.73;100.00
6938;BME280;40040;42.706;23.372;2023-02-18T07:01:32;144876.97;;;2.80;100.00
6938;BME280;40040;42.706;23.372;2023-02-18T07:03:59;144856.13;;;2.72;100.00
6938;BME280;40040;42.706;23.372;2023-02-18T07:06:27;144838.97;;;2.65;100.00
6938;BME280;40040;42.706;23.372;2023-02-18T07:08:54;144841.41;;;2.66;100.00
6938;BME280;40040;42.706;23.372;2023-02-18T07:11:21;144944.38;;;3.08;100.00
6938;BME280;40040;42.706;23.372;2023-02-18T07:13:47;145044.91;;;3.49;100.00
6938;BME280;40040;42.706;23.372;2023-02-18T07:16:14;145043.72;;;3.49;95.38
6938;BME280;40040;42.706;23.372;2023-02-18T07:18:41;145096.44;;;3.70;94.45
6938;BME280;40040;42.706;23.372;2023-02-18T07:21:08;145111.19;;;3.76;93.38
6938;BME280;40040;42.706;23.372;2023-02-18T07:23:36;145128.38;;;3.83;91.39
6938;BME280;40040;42.706;23.372;2023-02-18T07:26:05;145182.34;;;4.05;89.39
6938;BME280;40040;42.706;23.372;2023-02-18T07:28:32;145198.28;;;4.12;87.57
6938;BME280;40040;42.706;23.372;2023-02-18T07:30:59;145118.53;;;3.79;87.64
6938;BME280;40040;42.706;23.372;2023-02-18T07:33:26;145248.59;;;4.32;86.12
6938;BME280;40040;42.706;23.372;2023-02-18T07:35:53;145280.53;;;4.45;86.06
6938;BME280;40040;42.706;23.372;2023-02-18T07:38:22;145298.97;;;4.53;83.97
6938;BME280;40040;42.706;23.372;2023-02-18T07:40:55;145291.56;;;4.50;82.76
6938;BME280;40040;42.706;23.372;2023-02-18T07:43:24;145409.47;;;4.98;82.80
6938;BME280;40040;42.706;23.372;2023-02-18T07:45:51;145377.53;;;4.85;79.62
6938;BME280;40040;42.706;23.372;2023-02-18T07:48:18;145430.34;;;5.07;79.43
6938;BME280;40040;42.706;23.372;2023-02-18T07:50:45;145484.38;;;5.29;78.12
6938;BME280;40040;42.706;23.372;2023-02-18T07:53:13;145502.81;;;5.36;77.97
6938;BME280;40040;42.706;23.372;2023-02-18T07:55:42;145512.66;;;5.40;78.65
6938;BME280;40040;42.706;23.372;2023-02-18T07:58:20;145555.63;;;5.58;77.73
6938;BME280;40040;42.706;23.372;2023-02-18T08:00:47;145572.84;;;5.65;76.58
6938;BME280;40040;42.706;23.372;2023-02-18T08:03:15;145622.06;;;5.85;74.67
6938;BME280;40040;42.706;23.372;2023-02-18T08:05:46;145650.31;;;5.97;73.84
6938;BME280;40040;42.706;23.372;2023-02-18T08:08:14;145597.44;;;5.75;73.03
6938;BME280;40040;42.706;23.372;2023-02-18T08:10:42;145823.72;;;6.67;69.42
6938;BME280;40040;42.706;23.372;2023-02-18T08:13:09;145886.41;;;6.93;67.57
6938;BME280;40040;42.706;23.372;2023-02-18T08:15:38;145929.47;;;7.11;66.80
6938;BME280;40040;42.706;23.372;2023-02-18T08:18:17;145788.03;;;6.53;65.25
6938;BME280;40040;42.706;23.372;2023-02-18T08:20:48;145959.00;;;7.23;65.82
6938;BME280;40040;42.706;23.372;2023-02-18T08:23:19;146013.13;;;7.45;64.21
6938;BME280;40040;42.706;23.372;2023-02-18T08:25:48;145994.72;;;7.37;64.01
6938;BME280;40040;42.706;23.372;2023-02-18T08:28:19;146109.16;;;7.84;62.29
6938;BME280;40040;42.706;23.372;2023-02-18T08:30:53;146009.44;;;7.43;61.38
6938;BME280;40040;42.706;23.372;2023-02-18T08:33:22;146183.03;;;8.14;60.71
6938;BME280;40040;42.706;23.372;2023-02-18T08:35:51;146210.16;;;8.25;60.08
6938;BME280;40040;42.706;23.372;2023-02-18T08:38:18;146205.19;;;8.23;60.83
6938;BME280;40040;42.706;23.372;2023-02-18T08:40:45;146195.34;;;8.19;59.58
6938;BME280;40040;42.706;23.372;2023-02-18T08:43:13;146248.34;;;8.41;58.66
6938;BME280;40040;42.706;23.372;2023-02-18T08:45:41;146269.25;;;8.49;59.06
6938;BME280;40040;42.706;23.372;2023-02-18T08:48:12;146286.50;;;8.56;58.48
6938;BME280;40040;42.706;23.372;2023-02-18T08:50:40;146322.25;;;8.71;57.61
6938;BME280;40040;42.706;23.372;2023-02-18T08:53:07;146344.44;;;8.80;57.78
6938;BME280;40040;42.706;23.372;2023-02-18T08:55:34;146372.75;;;8.91;57.46
6938;BME280;40040;42.706;23.372;2023-02-18T08:58:03;146402.31;;;9.03;56.94
6938;BME280;40040;42.706;23.372;2023-02-18T09:00:31;146407.25;;;9.05;57.04
6938;BME280;40040;42.706;23.372;2023-02-18T09:02:58;146449.16;;;9.23;56.38
6938;BME280;40040;42.706;23.372;2023-02-18T09:05:26;146504.63;;;9.45;55.16
6938;BME280;40040;42.706;23.372;2023-02-18T09:07:53;146540.38;;;9.60;55.01
6938;BME280;40040;42.706;23.372;2023-02-18T09:10:20;146518.19;;;9.51;54.50
6938;BME280;40040;42.706;23.372;2023-02-18T09:12:47;146560.09;;;9.68;53.84
6938;BME280;40040;42.706;23.372;2023-02-18T09:15:14;146560.09;;;9.68;54.14
6938;BME280;40040;42.706;23.372;2023-02-18T09:17:41;146632.84;;;9.97;53.82
6938;BME280;40040;42.706;23.372;2023-02-18T09:20:08;146603.25;;;9.85;53.56
6938;BME280;40040;42.706;23.372;2023-02-18T09:22:37;146587.22;;;9.79;52.66
6938;BME280;40040;42.706;23.372;2023-02-18T09:25:04;146648.91;;;10.04;52.84
6938;BME280;40040;42.706;23.372;2023-02-18T09:27:31;146668.66;;;10.12;52.82
6938;BME280;40040;42.706;23.372;2023-02-18T09:29:58;146653.78;;;10.06;52.44
6938;BME280;40040;42.706;23.372;2023-02-18T09:32:25;146735.25;;;10.39;51.59
6938;BME280;40040;42.706;23.372;2023-02-18T09:34:52;146789.56;;;10.61;51.54
6938;BME280;40040;42.706;23.372;2023-02-18T09:37:20;146820.41;;;10.74;50.67
6938;BME280;40040;42.706;23.372;2023-02-18T09:39:48;146879.63;;;10.98;50.37
6938;BME280;40040;42.706;23.372;2023-02-18T09:42:17;146956.16;;;11.29;49.85
6938;BME280;40040;42.706;23.372;2023-02-18T09:44:50;147064.88;;;11.73;49.02
6938;BME280;40040;42.706;23.372;2023-02-18T09:47:20;147125.34;;;11.98;47.96
6938;BME280;40040;42.706;23.372;2023-02-18T09:49:52;147211.81;;;12.33;48.05
6938;BME280;40040;42.706;23.372;2023-02-18T09:52:21;147305.72;;;12.71;46.84
6938;BME280;40040;42.706;23.372;2023-02-18T09:54:50;147289.66;;;12.65;46.07
6938;BME280;40040;42.706;23.372;2023-02-18T09:57:23;147420.75;;;13.18;45.25
6938;BME280;40040;42.706;23.372;2023-02-18T09:59:56;147367.53;;;12.96;45.38
6938;BME280;40040;42.706;23.372;2023-02-18T10:02:24;147315.63;;;12.75;44.78
6938;BME280;40040;42.706;23.372;2023-02-18T10:04:51;147407.16;;;13.12;45.09
6938;BME280;40040;42.706;23.372;2023-02-18T10:07:24;147512.22;;;13.55;44.38
6938;BME280;40040;42.706;23.372;2023-02-18T10:09:53;147597.53;;;13.90;43.82
6938;BME280;40040;42.706;23.372;2023-02-18T10:12:22;147661.88;;;14.16;43.38
6938;BME280;40040;42.706;23.372;2023-02-18T10:14:51;147733.72;;;14.45;42.40
6938;BME280;40040;42.706;23.372;2023-02-18T10:17:20;147883.47;;;15.06;40.78
6938;BME280;40040;42.706;23.372;2023-02-18T10:19:48;148003.63;;;15.54;38.48
6938;BME280;40040;42.706;23.372;2023-02-18T10:22:17;148117.53;;;16.01;37.66
6938;BME280;40040;42.706;23.372;2023-02-18T10:24:48;148239.03;;;16.50;36.68
6938;BME280;40040;42.706;23.372;2023-02-18T10:27:22;148286.13;;;16.69;34.63
6938;BME280;40040;42.706;23.372;2023-02-18T10:29:50;148266.31;;;16.61;34.70
6938;BME280;40040;42.706;23.372;2023-02-18T10:32:21;148219.19;;;16.42;34.95
6938;BME280;40040;42.706;23.372;2023-02-18T10:34:51;148239.03;;;16.50;34.36
6938;BME280;40040;42.706;23.372;2023-02-18T10:37:40;148298.50;;;16.74;33.66
6938;BME280;40040;42.706;23.372;2023-02-18T10:40:17;148355.56;;;16.97;33.50
6938;BME280;40040;42.706;23.372;2023-02-18T10:42:59;148432.41;;;17.28;32.08
6938;BME280;40040;42.706;23.372;2023-02-18T10:45:35;148521.75;;;17.64;32.23
6938;BME280;40040;42.706;23.372;2023-02-18T10:48:25;148633.44;;;18.10;31.14
6938;BME280;40040;42.706;23.372;2023-02-18T10:50:55;148712.88;;;18.42;31.13
6938;BME280;40040;42.706;23.372;2023-02-18T10:53:29;148692.97;;;18.34;30.48
6938;BME280;40040;42.706;23.372;2023-02-18T10:55:57;148688.00;;;18.32;30.75
6938;BME280;40040;42.706;23.372;2023-02-18T10:58:30;148649.53;;;18.16;30.64
6938;BME280;40040;42.706;23.372;2023-02-18T11:00:59;148489.50;;;17.51;31.55
6938;BME280;40040;42.706;23.372;2023-02-18T11:03:39;148362.97;;;17.00;31.92
6938;BME280;40040;42.706;23.372;2023-02-18T11:06:15;148413.84;;;17.21;32.00
6938;BME280;40040;42.706;23.372;2023-02-18T11:08:45;148459.72;;;17.39;32.36
6938;BME280;40040;42.706;23.372;2023-02-18T11:11:15;148524.25;;;17.65;32.64
6938;BME280;40040;42.706;23.372;2023-02-18T11:13:51;148607.38;;;17.99;31.16
6938;BME280;40040;42.706;23.372;2023-02-18T11:16:21;148678.06;;;18.28;30.81
6938;BME280;40040;42.706;23.372;2023-02-18T11:18:49;148658.22;;;18.20;30.75
6938;BME280;40040;42.706;23.372;2023-02-18T11:21:27;148712.88;;;18.42;30.70
6938;BME280;40040;42.706;23.372;2023-02-18T11:23:56;148676.81;;;18.27;30.86
6938;BME280;40040;42.706;23.372;2023-02-18T11:26:26;148608.59;;;17.99;30.94
6938;BME280;40040;42.706;23.372;2023-02-18T11:29:05;148607.38;;;17.99;30.78
6938;BME280;40040;42.706;23.372;2023-02-18T11:31:39;148591.22;;;17.92;31.13
6938;BME280;40040;42.706;23.372;2023-02-18T11:34:14;148582.53;;;17.89;31.48
6938;BME280;40040;42.706;23.372;2023-02-18T11:36:42;148560.25;;;17.80;31.56
6938;BME280;40040;42.706;23.372;2023-02-18T11:39:18;148620.97;;;18.05;31.25
6938;BME280;40040;42.706;23.372;2023-02-18T11:41:53;148656.97;;;18.19;31.34
6938;BME280;40040;42.706;23.372;2023-02-18T11:44:28;148644.56;;;18.14;31.42
6938;BME280;40040;42.706;23.372;2023-02-18T11:46:58;148655.72;;;18.19;31.74
6938;BME280;40040;42.706;23.372;2023-02-18T11:49:26;148668.13;;;18.24;31.80
6938;BME280;40040;42.706;23.372;2023-02-18T11:51:55;148590.00;;;17.92;31.91
6938;BME280;40040;42.706;23.372;2023-02-18T11:54:29;148550.31;;;17.76;31.88
6938;BME280;40040;42.706;23.372;2023-02-18T11:56:58;148444.81;;;17.33;32.81
6938;BME280;40040;42.706;23.372;2023-02-18T11:59:35;148381.59;;;17.08;33.31
6938;BME280;40040;42.706;23.372;2023-02-18T12:02:18;148392.72;;;17.12;33.75
6938;BME280;40040;42.706;23.372;2023-02-18T12:04:59;148459.72;;;17.39;34.01
6938;BME280;40040;42.706;23.372;2023-02-18T12:07:38;148428.69;;;17.27;33.58
6938;BME280;40040;42.706;23.372;2023-02-18T12:10:13;148560.25;;;17.80;33.00
6938;BME280;40040;42.706;23.372;2023-02-18T12:12:44;148596.19;;;17.94;33.01
6938;BME280;40040;42.706;23.372;2023-02-18T12:15:17;148573.84;;;17.85;33.38
6938;BME280;40040;42.706;23.372;2023-02-18T12:18:03;148578.81;;;17.87;33.09
6938;BME280;40040;42.706;23.372;2023-02-18T12:23:35;148480.84;;;17.48;33.88
6938;BME280;40040;42.706;23.372;2023-02-18T12:26:25;148410.09;;;17.19;34.56
6938;BME280;40040;42.706;23.372;2023-02-18T12:29:04;148438.63;;;17.31;34.76
6938;BME280;40040;42.706;23.372;2023-02-18T12:31:57;148469.66;;;17.43;34.84
6938;BME280;40040;42.706;23.372;2023-02-18T12:34:46;148421.28;;;17.24;34.34
6938;BME280;40040;42.706;23.372;2023-02-18T12:37:36;148514.31;;;17.61;34.05
6938;BME280;40040;42.706;23.372;2023-02-18T12:40:20;148504.38;;;17.57;34.53
6938;BME280;40040;42.706;23.372;2023-02-18T12:42:58;148601.16;;;17.96;34.48
6938;BME280;40040;42.706;23.372;2023-02-18T12:45:53;148690.47;;;18.33;34.11
6938;BME280;40040;42.706;23.372;2023-02-18T12:48:39;148717.84;;;18.44;33.70
6938;BME280;40040;42.706;23.372;2023-02-18T12:51:37;148721.56;;;18.45;33.66
6938;BME280;40040;42.706;23.372;2023-02-18T12:57:35;148696.69;;;18.35;33.09
6938;BME280;40040;42.706;23.372;2023-02-18T13:00:29;148712.88;;;18.42;33.44
6938;BME280;40040;42.706;23.372;2023-02-18T13:03:15;148704.13;;;18.38;33.55
6938;BME280;40040;42.706;23.372;2023-02-18T13:05:56;148722.81;;;18.46;33.19
6938;BME280;40040;42.706;23.372;2023-02-18T13:08:38;148704.13;;;18.38;33.65
6938;BME280;40040;42.706;23.372;2023-02-18T13:11:20;148648.28;;;18.16;33.70
6938;BME280;40040;42.706;23.372;2023-02-18T13:13:57;148449.78;;;17.35;33.98
6938;BME280;40040;42.706;23.372;2023-02-18T13:16:42;148482.09;;;17.48;34.63
6938;BME280;40040;42.706;23.372;2023-02-18T13:19:18;148439.84;;;17.31;34.94
6938;BME280;40040;42.706;23.372;2023-02-18T13:21:49;148467.13;;;17.42;35.14
6938;BME280;40040;42.706;23.372;2023-02-18T13:24:23;148356.81;;;16.98;35.34
6938;BME280;40040;42.706;23.372;2023-02-18T13:26:55;148449.78;;;17.35;34.62
6938;BME280;40040;42.706;23.372;2023-02-18T13:29:26;148468.41;;;17.43;34.98
6938;BME280;40040;42.706;23.372;2023-02-18T13:32:02;148474.56;;;17.45;35.45